Time;durP1;ratioP1;P1;durP2;ratioP2;P2;SDS_P1;SDS_P2;PMS_P1;PMS_P2;Temp;Humidity;BMP_temperature;BMP_pressure;BME280_temperature;BME280_humidity;BME280_pressure;Samples;Min_cycle;Max_cycle;Signal;HPM_P1;HPM_P2
2022/07/27 00:02:12;;;;;;;1999.90;999.90;;;;;;;18.58;63.71;99370.47;8182585;28;20114;-79
2022/07/27 00:06:13;;;;;;;1999.90;999.90;;;;;;;18.58;63.33;99365.22;8178596;28;20075;-80
2022/07/27 00:10:16;;;;;;;1999.90;999.90;;;;;;;18.55;63.76;99360.06;8178945;29;20301;-80
2022/07/27 00:14:17;;;;;;;1999.90;999.90;;;;;;;18.53;63.58;99361.91;8178679;29;20050;-80
2022/07/27 00:18:19;;;;;;;1999.90;999.90;;;;;;;18.56;63.39;99369.69;8184989;28;20047;-79
2022/07/27 00:22:21;;;;;;;1999.90;999.90;;;;;;;18.41;63.81;99371.09;8177871;28;20093;-79
2022/07/27 00:26:23;;;;;;;1999.90;999.90;;;;;;;18.37;64.31;99361.63;8197746;28;20054;-79
2022/07/27 00:30:25;;;;;;;1999.90;999.90;;;;;;;18.27;64.08;99370.72;8178079;28;20050;-79
2022/07/27 00:34:27;;;;;;;1999.90;999.90;;;;;;;18.27;64.33;99370.72;8189925;28;20778;-79
2022/07/27 00:38:29;;;;;;;1999.90;999.90;;;;;;;18.28;64.32;99356.69;8197061;28;20034;-79
2022/07/27 00:42:31;;;;;;;1999.90;999.90;;;;;;;18.28;64.01;99356.69;8164202;28;20069;-79
2022/07/27 00:46:32;;;;;;;1999.90;999.90;;;;;;;18.32;63.63;99361.78;8167182;29;20146;-79
2022/07/27 00:50:35;;;;;;;1999.90;999.90;;;;;;;18.37;63.62;99358.97;8195991;28;20054;-79
2022/07/27 00:54:37;;;;;;;1999.90;999.90;;;;;;;18.27;63.93;99354.97;8180506;28;20081;-79
2022/07/27 00:58:39;;;;;;;1999.90;999.90;;;;;;;18.31;64.41;99349.56;8186551;28;20054;-80
2022/07/27 01:02:41;;;;;;;1999.90;999.90;;;;;;;18.37;63.47;99344.06;8160093;28;20134;-80
2022/07/27 01:06:47;;;;;;;1999.90;999.90;;;;;;;18.41;63.81;99342.19;8178824;29;20039;-79
2022/07/27 01:10:53;;;;;;;1999.90;999.90;;;;;;;18.45;63.60;99342.91;8178132;29;20059;-80
2022/07/27 01:14:56;;;;;;;1999.90;999.90;;;;;;;18.47;63.22;99347.19;8174278;29;20048;-80
2022/07/27 01:18:59;;;;;;;1999.90;999.90;;;;;;;18.49;63.03;99347.13;8175366;28;20039;-80
2022/07/27 01:23:01;;;;;;;1999.90;999.90;;;;;;;18.52;63.64;99345.28;8198003;28;20058;-80
2022/07/27 01:27:04;;;;;;;1999.90;999.90;;;;;;;18.50;63.74;99348.88;8174424;28;20508;-79
2022/07/27 01:31:06;;;;;;;1999.90;999.90;;;;;;;18.50;63.29;99341.00;8184896;28;20109;-80
2022/07/27 01:35:08;;;;;;;1999.90;999.90;;;;;;;18.52;62.92;99333.91;8177672;28;20051;-79
2022/07/27 01:39:11;;;;;;;1999.90;999.90;;;;;;;18.53;63.26;99336.47;8194901;28;20179;-80
2022/07/27 01:43:13;;;;;;;1999.90;999.90;;;;;;;18.52;62.91;99337.38;8175924;28;20171;-79
2022/07/27 01:47:15;;;;;;;1999.90;999.90;;;;;;;18.53;62.78;99340.88;8177606;28;20142;-79
2022/07/27 01:51:16;;;;;;;1999.90;999.90;;;;;;;18.56;63.17;99336.34;8176736;28;20086;-80
2022/07/27 01:55:18;;;;;;;1999.90;999.90;;;;;;;18.55;63.13;99336.41;8201050;28;20055;-80
2022/07/27 01:59:20;;;;;;;1999.90;999.90;;;;;;;18.55;62.92;99334.63;8172691;28;20475;-79
2022/07/27 02:03:21;;;;;;;1999.90;999.90;;;;;;;18.55;63.10;99328.53;8184558;29;20191;-79
2022/07/27 02:07:23;;;;;;;1999.90;999.90;;;;;;;18.52;63.03;99334.75;8186759;28;20058;-80
2022/07/27 02:15:47;;;;;;;1999.90;999.90;;;;;;;18.54;63.53;99325.03;8198294;28;20058;-79
2022/07/27 02:19:49;;;;;;;1999.90;999.90;;;;;;;18.52;63.63;99320.75;8188513;28;20353;-79
2022/07/27 02:23:51;;;;;;;1999.90;999.90;;;;;;;18.49;63.58;99331.34;8177710;28;20066;-79
2022/07/27 02:27:52;;;;;;;1999.90;999.90;;;;;;;18.38;64.11;99331.78;8184828;28;20142;-79
2022/07/27 02:31:54;;;;;;;1999.90;999.90;;;;;;;18.28;64.69;99326.00;8199090;28;20071;-80
2022/07/27 02:35:56;;;;;;;1999.90;999.90;;;;;;;18.23;65.34;99327.06;8195602;28;20051;-79
2022/07/27 02:39:58;;;;;;;1999.90;999.90;;;;;;;18.21;64.63;99331.53;8170648;29;20054;-79
2022/07/27 02:43:59;;;;;;;1999.90;999.90;;;;;;;18.24;64.97;99331.41;8175204;29;20081;-79
2022/07/27 02:48:01;;;;;;;1999.90;999.90;;;;;;;18.31;65.25;99341.66;8203667;28;20134;-79
2022/07/27 02:52:04;;;;;;;1999.90;999.90;;;;;;;18.32;64.84;99334.66;8183596;29;20066;-79
2022/07/27 02:56:06;;;;;;;1999.90;999.90;;;;;;;18.30;65.37;99333.81;8172815;28;20098;-80
2022/07/27 03:00:11;;;;;;;1999.90;999.90;;;;;;;18.30;65.43;99334.66;8178042;29;20532;-80
2022/07/27 03:04:14;;;;;;;1999.90;999.90;;;;;;;18.21;65.04;99337.66;8184859;28;20093;-80
2022/07/27 03:08:16;;;;;;;1999.90;999.90;;;;;;;18.10;65.68;99345.06;8161767;29;20460;-80
2022/07/27 03:12:17;;;;;;;1999.90;999.90;;;;;;;18.03;65.69;99335.69;8210674;28;20093;-79
2022/07/27 03:16:19;;;;;;;1999.90;999.90;;;;;;;18.06;66.03;99336.44;8188111;28;20055;-79
2022/07/27 03:20:21;;;;;;;1999.90;999.90;;;;;;;18.11;66.11;99331.00;8182221;28;20123;-79
2022/07/27 03:24:23;;;;;;;1999.90;999.90;;;;;;;18.10;66.34;99338.03;8182857;28;20130;-80
2022/07/27 03:28:25;;;;;;;1999.90;999.90;;;;;;;18.07;66.09;99339.91;8197368;29;20069;-80
2022/07/27 03:32:26;;;;;;;1999.90;999.90;;;;;;;18.04;66.29;99351.41;8186774;28;20055;-80
2022/07/27 03:36:28;;;;;;;1999.90;999.90;;;;;;;18.01;66.04;99346.25;8194715;28;20301;-80
2022/07/27 03:40:32;;;;;;;1999.90;999.90;;;;;;;18.02;66.35;99341.84;8176316;28;20039;-79
2022/07/27 03:44:34;;;;;;;1999.90;999.90;;;;;;;18.05;66.30;99334.72;8187410;28;20040;-79
2022/07/27 03:48:36;;;;;;;1999.90;999.90;;;;;;;18.04;66.07;99340.88;8176874;28;20101;-80
2022/07/27 03:52:37;;;;;;;1999.90;999.90;;;;;;;18.03;66.50;99344.44;8210811;28;20133;-79
2022/07/27 03:56:39;;;;;;;1999.90;999.90;;;;;;;17.99;66.67;99337.56;8192021;28;20046;-80
2022/07/27 04:00:44;;;;;;;1999.90;999.90;;;;;;;17.95;66.68;99342.97;8182757;28;20313;-80
2022/07/27 04:04:45;;;;;;;1999.90;999.90;;;;;;;17.93;67.36;99334.28;8183157;29;20071;-81
2022/07/27 04:08:47;;;;;;;1999.90;999.90;;;;;;;17.93;67.00;99335.13;8195715;28;20046;-80
2022/07/27 04:12:49;;;;;;;1999.90;999.90;;;;;;;17.92;66.41;99327.31;8180291;28;20047;-81
2022/07/27 04:16:53;;;;;;;1999.90;999.90;;;;;;;17.91;66.44;99331.72;8192814;28;20663;-81
2022/07/27 04:20:55;;;;;;;1999.90;999.90;;;;;;;17.89;66.41;99332.69;8173539;29;20043;-81
2022/07/27 04:24:56;;;;;;;1999.90;999.90;;;;;;;17.85;66.26;99318.81;8199695;28;20058;-81
2022/07/27 04:28:58;;;;;;;1999.90;999.90;;;;;;;17.83;66.82;99322.41;8191303;28;20043;-81
2022/07/27 04:33:00;;;;;;;1999.90;999.90;;;;;;;17.81;66.89;99325.09;8183408;28;20094;-81
2022/07/27 04:37:04;;;;;;;1999.90;999.90;;;;;;;17.84;66.54;99327.59;8182323;28;20074;-81
2022/07/27 04:41:06;;;;;;;1999.90;999.90;;;;;;;17.88;67.05;99329.19;8176200;28;20066;-80
2022/07/27 04:45:08;;;;;;;1999.90;999.90;;;;;;;17.90;66.81;99330.00;8210684;28;20532;-80
2022/07/27 04:49:11;;;;;;;1999.90;999.90;;;;;;;17.93;66.99;99339.53;8198606;28;20065;-81
2022/07/27 04:53:13;;;;;;;;;;;;;;;17.95;66.99;99341.19;8194609;28;20083;-81
2022/07/27 04:57:15;;;;;;;1999.90;999.90;;;;;;;17.99;67.03;99344.59;8186236;28;19937;-81
2022/07/27 05:01:17;;;;;;;1999.90;999.90;;;;;;;18.03;67.06;99343.56;8182381;29;20130;-81
2022/07/27 05:05:18;;;;;;;1999.90;999.90;;;;;;;18.08;66.97;99350.38;8181199;29;20047;-81
2022/07/27 05:09:20;;;;;;;1999.90;999.90;;;;;;;18.12;67.22;99359.84;8178156;29;20551;-81
2022/07/27 05:13:23;;;;;;;1999.90;999.90;;;;;;;18.08;66.85;99368.75;8186645;28;20053;-81
2022/07/27 05:17:27;;;;;;;1999.90;999.90;;;;;;;18.14;67.14;99372.09;8186850;28;20207;-80
2022/07/27 05:21:29;;;;;;;1999.90;999.90;;;;;;;18.15;66.98;99372.06;8203951;28;20109;-80
2022/07/27 05:25:32;;;;;;;1999.90;999.90;;;;;;;18.17;66.75;99375.47;8174915;29;20094;-79
2022/07/27 05:29:34;;;;;;;1999.90;999.90;;;;;;;18.20;66.43;99378.00;8175976;28;20090;-80
2022/07/27 05:33:36;;;;;;;1999.90;999.90;;;;;;;18.28;66.59;99382.97;8172974;28;20158;-80
2022/07/27 05:37:39;;;;;;;1999.90;999.90;;;;;;;18.35;66.69;99380.06;8189271;28;20084;-77
2022/07/27 05:41:40;;;;;;;1999.90;999.90;;;;;;;18.39;65.83;99378.19;8190966;28;20043;-78
2022/07/27 05:45:42;;;;;;;1999.90;999.90;;;;;;;18.45;66.16;99379.72;8183168;28;20069;-77
2022/07/27 05:49:44;;;;;;;1999.90;999.90;;;;;;;18.50;65.75;99383.06;8169017;28;20369;-77
2022/07/27 05:53:48;;;;;;;1999.90;999.90;;;;;;;18.52;65.42;99384.72;8186824;29;20047;-81
2022/07/27 05:57:49;;;;;;;1999.90;999.90;;;;;;;18.56;65.24;99385.47;8179825;28;20054;-81
2022/07/27 06:01:51;;;;;;;1999.90;999.90;;;;;;;18.60;64.56;99394.94;8170081;29;20425;-81
2022/07/27 06:07:57;;;;;;;1999.90;999.90;;;;;;;18.65;64.76;99388.63;8175852;29;20075;-80
2022/07/27 06:10:14;;;;;;;1999.90;999.90;;;;;;;18.71;64.56;99392.81;8173240;28;20617;-80
2022/07/27 06:14:15;;;;;;;1999.90;999.90;;;;;;;18.77;64.47;99397.84;8172984;28;20083;-81
2022/07/27 06:18:17;;;;;;;1999.90;999.90;;;;;;;18.77;63.43;99395.19;8191702;28;20086;-80
2022/07/27 06:22:20;;;;;;;1999.90;999.90;;;;;;;18.71;63.57;99400.72;8165060;29;20162;-80
2022/07/27 06:26:23;;;;;;;1999.90;999.90;;;;;;;18.71;63.82;99412.09;8168601;29;20035;-81
2022/07/27 06:30:25;;;;;;;1999.90;999.90;;;;;;;18.87;63.63;99407.09;8171405;29;20082;-80
2022/07/27 06:34:27;;;;;;;1999.90;999.90;;;;;;;18.94;62.94;99413.00;8165360;28;20094;-80
2022/07/27 06:38:29;;;;;;;1999.90;999.90;;;;;;;19.05;62.97;99418.72;8184092;29;20043;-80
2022/07/27 06:42:31;;;;;;;1999.90;999.90;;;;;;;19.16;62.94;99419.13;8184998;28;20134;-81
2022/07/27 06:46:32;;;;;;;1999.90;999.90;;;;;;;19.24;62.39;99414.44;8190810;28;20079;-81
2022/07/27 06:50:34;;;;;;;1999.90;999.90;;;;;;;19.33;62.14;99419.31;8161985;29;20674;-81
2022/07/27 06:54:35;;;;;;;1999.90;999.90;;;;;;;19.43;61.79;99426.88;8197979;28;20817;-81
2022/07/27 06:58:37;;;;;;;1999.90;999.90;;;;;;;19.68;60.29;99430.25;8203063;28;20039;-81
2022/07/27 07:02:51;;;;;;;1999.90;999.90;;;;;;;19.73;60.54;99416.88;8174948;29;20058;-81
2022/07/27 07:06:59;;;;;;;1999.90;999.90;;;;;;;19.79;60.62;99417.50;8170882;29;20582;-82
2022/07/27 07:11:10;;;;;;;1999.90;999.90;;;;;;;19.89;59.92;99424.09;8169105;28;20472;-81
2022/07/27 07:15:25;;;;;;;1999.90;999.90;;;;;;;20.05;59.82;99412.91;8171465;29;20476;-81
2022/07/27 07:19:38;;;;;;;1999.90;999.90;;;;;;;20.23;59.18;99425.31;8192617;29;20139;-82
2022/07/27 07:23:50;;;;;;;1999.90;999.90;;;;;;;20.34;57.58;99427.47;8190939;29;20047;-81
2022/07/27 07:28:06;;;;;;;1999.90;999.90;;;;;;;20.48;57.15;99422.50;8203265;28;20051;-82
2022/07/27 07:32:21;;;;;;;1999.90;999.90;;;;;;;20.83;56.42;99428.84;8204013;28;20043;-81
2022/07/27 07:36:54;;;;;;;1999.90;999.90;;;;;;;20.98;55.75;99425.47;8178519;29;20106;-82
2022/07/27 07:41:24;;;;;;;1999.90;999.90;;;;;;;21.25;55.33;99427.78;8160914;29;20043;-81
2022/07/27 07:45:49;;;;;;;1999.90;999.90;;;;;;;21.59;54.14;99422.59;8188159;28;20062;-81
2022/07/27 07:50:55;;;;;;;1999.90;999.90;;;;;;;22.29;51.43;99423.50;8158071;28;20042;-81
2022/07/27 07:55:31;;;;;;;1999.90;999.90;;;;;;;22.52;50.16;99422.31;8423938;27;20148;-81
2022/07/27 07:59:34;;;;;;;1999.90;999.90;;;;;;;22.73;49.30;99426.44;8416194;28;20075;-81
2022/07/27 08:03:55;;;;;;;1999.90;999.90;;;;;;;23.09;48.07;99423.63;8406999;28;20052;-81
2022/07/27 08:08:12;;;;;;;1999.90;999.90;;;;;;;22.96;47.44;99425.22;8387805;28;20044;-81
2022/07/27 08:23:30;;;;;;;1999.90;999.90;;;;;;;24.86;43.55;99421.19;10175734;22;20125;-82
2022/07/27 08:27:34;;;;;;;1999.90;999.90;;;;;;;25.07;42.80;99416.34;10102116;23;20018;-81
2022/07/27 08:31:48;;;;;;;1999.90;999.90;;;;;;;24.91;42.79;99423.56;10105136;23;20022;-81
2022/07/27 08:36:05;;;;;;;1999.90;999.90;;;;;;;24.59;43.23;99418.44;10098347;23;20086;-77
2022/07/27 08:40:08;;;;;;;1999.90;999.90;;;;;;;24.40;43.51;99417.84;10106214;23;20025;-77
2022/07/27 08:44:30;;;;;;;1999.90;999.90;;;;;;;24.70;43.18;99423.09;10089107;23;20026;-77
2022/07/27 08:48:32;;;;;;;1999.90;999.90;;;;;;;24.58;43.36;99419.38;10007310;23;20495;-77
2022/07/27 08:52:35;;;;;;;;;;;;;;;24.44;43.19;99413.22;9996610;23;20219;-78
2022/07/27 08:56:36;;;;;;;1999.90;999.90;;;;;;;24.38;43.84;99415.28;9994739;23;20233;-77
2022/07/27 09:00:44;;;;;;;1999.90;999.90;;;;;;;24.30;43.49;99414.91;10010151;23;20022;-78
2022/07/27 09:04:46;;;;;;;1999.90;999.90;;;;;;;24.22;44.01;99421.56;10010360;23;20433;-77
2022/07/27 09:08:58;;;;;;;1999.90;999.90;;;;;;;23.99;44.78;99413.19;10010113;23;20027;-75
2022/07/27 09:13:16;;;;;;;1999.90;999.90;;;;;;;24.04;44.21;99418.22;9993873;23;20032;-77
2022/07/27 09:17:27;;;;;;;1999.90;999.90;;;;;;;24.34;43.91;99412.91;9987855;23;20069;-76
2022/07/27 09:21:48;;;;;;;1999.90;999.90;;;;;;;24.67;42.69;99405.53;10011726;23;20342;-76
2022/07/27 09:26:08;;;;;;;1999.90;999.90;;;;;;;24.90;41.69;99417.38;10029252;23;20049;-76
2022/07/27 09:30:29;;;;;;;1999.90;999.90;;;;;;;24.98;42.32;99414.25;10024433;23;20031;-76
2022/07/27 09:34:33;;;;;;;1999.90;999.90;;;;;;;24.55;41.06;99411.59;10005026;23;20023;-76
2022/07/27 09:38:35;;;;;;;1999.90;999.90;;;;;;;24.29;42.25;99413.22;10003954;23;20322;-76
2022/07/27 09:42:36;;;;;;;1999.90;999.90;;;;;;;23.91;42.03;99412.81;10004689;23;20498;-76
2022/07/27 09:46:58;;;;;;;1999.90;999.90;;;;;;;23.85;43.13;99417.59;9984522;23;20380;-76
2022/07/27 09:51:03;;;;;;;1999.90;999.90;;;;;;;23.96;43.13;99407.22;9982037;23;20603;-76
2022/07/27 09:55:24;;;;;;;1999.90;999.90;;;;;;;24.09;41.82;99408.22;9981342;23;20038;-76
2022/07/27 09:59:26;;;;;;;1999.90;999.90;;;;;;;24.38;41.49;99414.44;9984914;23;20030;-77
2022/07/27 10:03:30;;;;;;;1999.90;999.90;;;;;;;24.78;41.21;99404.88;9981974;23;20038;-77
2022/07/27 10:07:32;;;;;;;1999.90;999.90;;;;;;;24.53;40.05;99408.19;9983460;23;20051;-77
2022/07/27 10:11:35;;;;;;;1999.90;999.90;;;;;;;24.54;41.45;99417.88;9958529;23;20035;-77
2022/07/27 10:15:40;;;;;;;1999.90;999.90;;;;;;;24.33;41.31;99409.41;9993887;23;20023;-76
2022/07/27 10:19:49;;;;;;;1999.90;999.90;;;;;;;24.19;41.22;99406.69;9983707;23;20049;-76
2022/07/27 10:23:59;;;;;;;1999.90;999.90;;;;;;;24.27;41.56;99411.56;9984121;23;20042;-77
2022/07/27 10:28:09;;;;;;;1999.90;999.90;;;;;;;24.73;39.56;99414.06;9984263;23;20027;-77
2022/07/27 10:32:10;;;;;;;1999.90;999.90;;;;;;;25.32;39.62;99406.81;10010563;23;20031;-77
2022/07/27 10:36:16;;;;;;;1999.90;999.90;;;;;;;25.66;38.79;99411.63;10022593;23;20058;-77
2022/07/27 10:40:33;;;;;;;1999.90;999.90;;;;;;;25.96;37.40;99405.25;10001705;23;20023;-77
2022/07/27 10:44:35;;;;;;;1999.90;999.90;;;;;;;26.28;37.34;99395.94;10029294;23;20027;-78
2022/07/27 10:48:38;;;;;;;1999.90;999.90;;;;;;;26.69;35.70;99402.88;10024523;23;20038;-77
2022/07/27 10:52:54;;;;;;;1999.90;999.90;;;;;;;27.01;35.65;99400.63;10030182;23;20027;-77
2022/07/27 10:56:57;;;;;;;1999.90;999.90;;;;;;;27.17;35.14;99400.34;10031263;23;20054;-77
2022/07/27 11:01:08;;;;;;;1999.90;999.90;;;;;;;27.24;34.96;99381.13;9996600;23;20023;-77
2022/07/27 11:05:14;;;;;;;1999.90;999.90;;;;;;;27.18;33.83;99381.59;9982761;23;20027;-77
2022/07/27 11:09:41;;;;;;;1999.90;999.90;;;;;;;27.04;35.05;99382.56;9985455;23;20050;-77
2022/07/27 11:14:02;;;;;;;1999.90;999.90;;;;;;;26.72;35.19;99376.84;9984956;23;20047;-77
2022/07/27 11:18:04;;;;;;;;;;;;;;;26.35;35.49;99377.75;9983756;23;20034;-77
2022/07/27 11:22:06;;;;;;;1999.90;999.90;;;;;;;26.07;35.37;99371.63;9982487;23;20226;-77
2022/07/27 11:26:30;;;;;;;1999.90;999.90;;;;;;;25.90;35.77;99371.94;9981289;23;20070;-77
2022/07/27 11:30:31;;;;;;;1999.90;999.90;;;;;;;25.59;36.25;99365.13;9980017;23;20050;-77
2022/07/27 11:34:34;;;;;;;1999.90;999.90;;;;;;;25.57;36.29;99370.53;9982688;23;20070;-77
2022/07/27 11:38:54;;;;;;;1999.90;999.90;;;;;;;25.58;36.20;99352.78;9983629;23;20034;-77
2022/07/27 11:42:55;;;;;;;1999.90;999.90;;;;;;;25.77;36.38;99355.94;9996743;23;20015;-76
2022/07/27 11:46:57;;;;;;;1999.90;999.90;;;;;;;25.70;35.39;99353.81;9973360;23;20039;-77
2022/07/27 11:51:02;;;;;;;1999.90;999.90;;;;;;;25.64;35.56;99348.84;9980309;23;20071;-77
2022/07/27 11:55:05;;;;;;;;;;;;;;;25.51;35.68;99351.50;9979062;23;20023;-77
2022/07/27 11:59:09;;;;;;;1999.90;999.90;;;;;;;25.55;37.09;99345.88;9981319;23;19921;-77
2022/07/27 12:03:28;;;;;;;1999.90;999.90;;;;;;;25.36;35.46;99341.88;9998223;23;20027;-77
2022/07/27 12:07:47;;;;;;;1999.90;999.90;;;;;;;25.19;37.18;99338.50;10021635;23;20522;-77
2022/07/27 12:11:56;;;;;;;;;;;;;;;25.09;37.00;99341.84;10024592;23;20050;-77
2022/07/27 12:15:58;;;;;;;1999.90;999.90;;;;;;;25.11;37.10;99337.28;10022421;23;19932;-77
2022/07/27 12:20:03;;;;;;;1999.90;999.90;;;;;;;25.20;36.79;99334.91;10000897;23;20033;-76
2022/07/27 12:24:04;;;;;;;1999.90;999.90;;;;;;;25.38;36.15;99339.97;10002909;23;20023;-76
2022/07/27 12:28:16;;;;;;;1999.90;999.90;;;;;;;25.69;36.08;99329.03;10000037;23;20110;-77
2022/07/27 12:32:18;;;;;;;1999.90;999.90;;;;;;;26.15;35.20;99333.84;9976212;23;20042;-76
2022/07/27 12:36:25;;;;;;;1999.90;999.90;;;;;;;26.10;34.24;99335.97;9978857;23;20042;-77
2022/07/27 12:40:28;;;;;;;1999.90;999.90;;;;;;;26.43;34.66;99335.47;9979652;23;20023;-76
2022/07/27 12:44:35;;;;;;;1999.90;999.90;;;;;;;26.63;33.91;99332.25;9980166;23;20023;-77
2022/07/27 12:48:40;;;;;;;1999.90;999.90;;;;;;;26.60;34.69;99340.44;9977013;23;20453;-77
2022/07/27 12:52:52;;;;;;;1999.90;999.90;;;;;;;26.43;34.28;99331.00;9995058;23;20614;-77
2022/07/27 12:56:53;;;;;;;1999.90;999.90;;;;;;;26.22;34.39;99334.28;9978727;23;20617;-76
2022/07/27 13:00:54;;;;;;;1999.90;999.90;;;;;;;26.07;34.52;99326.41;9989183;23;20031;-77
2022/07/27 13:04:56;;;;;;;1999.90;999.90;;;;;;;25.96;34.50;99328.09;9983997;23;20078;-76
2022/07/27 13:08:58;;;;;;;1999.90;999.90;;;;;;;25.78;34.74;99322.22;9981940;23;20058;-77
2022/07/27 13:12:59;;;;;;;1999.90;999.90;;;;;;;25.60;35.59;99326.94;9981639;23;20042;-77
2022/07/27 13:17:01;;;;;;;;;;;;;;;25.39;34.36;99326.56;9951659;23;20035;-76
2022/07/27 13:21:02;;;;;;;1999.90;999.90;;;;;;;25.21;34.79;99327.78;9981148;23;19929;-76
2022/07/27 13:25:05;;;;;;;1999.90;999.90;;;;;;;25.21;36.09;99325.13;9983438;23;20043;-77
2022/07/27 13:29:17;;;;;;;1999.90;999.90;;;;;;;25.22;35.85;99325.00;9982221;23;20031;-77
2022/07/27 13:33:19;;;;;;;1999.90;999.90;;;;;;;25.24;35.10;99315.13;9982683;23;20019;-76
2022/07/27 13:37:21;;;;;;;1999.90;999.90;;;;;;;25.21;34.44;99319.81;9980926;23;20034;-76
2022/07/27 13:41:23;;;;;;;1999.90;999.90;;;;;;;25.32;34.43;99305.81;9957143;23;20034;-77
2022/07/27 13:45:24;;;;;;;1999.90;999.90;;;;;;;25.82;33.68;99297.94;9979322;23;20023;-76
2022/07/27 13:49:26;;;;;;;1999.90;999.90;;;;;;;26.46;33.62;99293.50;10031141;23;20035;-77
2022/07/27 13:53:27;;;;;;;;;;;;;;;26.83;32.72;99287.31;10006429;23;20023;-77
2022/07/27 13:57:29;;;;;;;1999.90;999.90;;;;;;;26.89;32.70;99278.88;10032403;23;19921;-77
2022/07/27 14:01:31;;;;;;;1999.90;999.90;;;;;;;27.00;32.18;99274.50;10002564;23;20394;-77
2022/07/27 14:05:35;;;;;;;1999.90;999.90;;;;;;;27.40;32.09;99288.34;10032074;23;20118;-77
2022/07/27 14:14:00;;;;;;;1999.90;999.90;;;;;;;27.14;30.47;99283.28;10005686;23;20030;-77
2022/07/27 14:18:02;;;;;;;1999.90;999.90;;;;;;;26.74;31.49;99283.50;9995781;23;20023;-76
2022/07/27 14:22:03;;;;;;;1999.90;999.90;;;;;;;26.32;32.44;99282.94;9983249;23;20019;-77
2022/07/27 14:26:06;;;;;;;;;;;;;;;25.94;32.70;99284.78;9980893;23;20483;-77
2022/07/27 14:30:08;;;;;;;1999.90;999.90;;;;;;;25.67;33.75;99284.81;9978835;23;19933;-77
2022/07/27 14:34:10;;;;;;;1999.90;999.90;;;;;;;25.39;33.43;99276.03;9979850;23;20062;-77
2022/07/27 14:38:11;;;;;;;1999.90;999.90;;;;;;;25.24;35.13;99275.25;9955782;23;20054;-77
2022/07/27 14:42:13;;;;;;;;;;;;;;;25.20;33.91;99279.09;9981218;23;20078;-76
2022/07/27 14:46:14;;;;;;;1999.90;999.90;;;;;;;25.22;34.78;99274.50;9976926;23;20013;-77
2022/07/27 14:50:16;;;;;;;1999.90;999.90;;;;;;;25.45;34.34;99265.00;9981185;23;20113;-77
2022/07/27 14:54:17;;;;;;;1999.90;999.90;;;;;;;26.00;33.87;99255.91;9982211;23;20034;-76
2022/07/27 14:58:19;;;;;;;;;;;;;;;26.68;32.93;99254.66;9982331;23;20028;-77
2022/07/27 15:02:20;;;;;;;1999.90;999.90;;;;;;;27.01;32.04;99254.88;10001462;23;19933;-77
2022/07/27 15:06:22;;;;;;;1999.90;999.90;;;;;;;26.80;30.57;99251.94;9980166;23;20903;-77
2022/07/27 15:10:24;;;;;;;1999.90;999.90;;;;;;;26.48;30.95;99245.44;9995788;23;20019;-76
2022/07/27 15:14:26;;;;;;;1999.90;999.90;;;;;;;26.22;31.92;99241.97;9996416;23;20431;-77
2022/07/27 15:18:29;;;;;;;1999.90;999.90;;;;;;;25.98;31.29;99239.19;9951945;23;20332;-77
2022/07/27 15:22:38;;;;;;;1999.90;999.90;;;;;;;25.77;33.03;99230.91;9981283;23;20478;-76
2022/07/27 15:26:40;;;;;;;1999.90;999.90;;;;;;;25.68;33.68;99239.53;9972427;23;20402;-76
2022/07/27 15:30:41;;;;;;;;;;;;;;;25.55;33.42;99236.84;9933232;23;20431;-77
2022/07/27 15:34:43;;;;;;;1999.90;999.90;;;;;;;25.35;33.50;99237.34;10003478;23;19921;-77
2022/07/27 15:38:44;;;;;;;1999.90;999.90;;;;;;;25.23;33.36;99236.34;10003960;23;20050;-77
2022/07/27 15:42:46;;;;;;;1999.90;999.90;;;;;;;25.13;34.54;99243.22;10003775;23;20015;-77
2022/07/27 15:46:47;;;;;;;1999.90;999.90;;;;;;;25.10;34.91;99246.09;9977758;23;20042;-77
2022/07/27 15:50:52;;;;;;;1999.90;999.90;;;;;;;25.03;34.99;99239.47;9982849;23;20023;-77
2022/07/27 15:54:53;;;;;;;1999.90;999.90;;;;;;;24.96;34.63;99236.34;10008232;23;20026;-77
2022/07/27 15:58:55;;;;;;;1999.90;999.90;;;;;;;24.94;35.08;99235.59;10007295;23;20031;-76
2022/07/27 16:02:57;;;;;;;1999.90;999.90;;;;;;;24.94;34.64;99230.28;9980009;23;20042;-77
2022/07/27 16:06:58;;;;;;;1999.90;999.90;;;;;;;24.94;34.66;99232.06;9981847;23;20027;-77
2022/07/27 16:11:00;;;;;;;1999.90;999.90;;;;;;;24.94;34.89;99226.75;9960108;23;20019;-77
2022/07/27 16:15:02;;;;;;;1999.90;999.90;;;;;;;24.92;34.71;99220.69;10000192;23;20023;-77
2022/07/27 16:19:04;;;;;;;1999.90;999.90;;;;;;;24.91;34.83;99219.00;9983354;23;20038;-77
2022/07/27 16:23:14;;;;;;;1999.90;999.90;;;;;;;24.91;34.35;99211.03;9983194;23;20023;-77
2022/07/27 16:27:22;;;;;;;1999.90;999.90;;;;;;;24.95;34.67;99199.25;9999586;23;20031;-77
2022/07/27 16:31:23;;;;;;;1999.90;999.90;;;;;;;25.27;34.52;99199.78;9979960;23;20050;-77
2022/07/27 16:35:26;;;;;;;1999.90;999.90;;;;;;;25.50;34.05;99198.22;9984887;23;20027;-77
2022/07/27 16:39:28;;;;;;;1999.90;999.90;;;;;;;25.53;34.16;99206.00;9984442;23;20019;-77
2022/07/27 16:43:30;;;;;;;1999.90;999.90;;;;;;;25.51;33.72;99202.59;9984463;23;20050;-77
2022/07/27 16:47:39;;;;;;;1999.90;999.90;;;;;;;25.46;33.88;99216.19;10003266;23;20771;-77
2022/07/27 16:51:40;;;;;;;1999.90;999.90;;;;;;;25.40;33.65;99210.44;10033209;23;20223;-77
2022/07/27 16:55:42;;;;;;;1999.90;999.90;;;;;;;25.32;33.76;99210.13;10033844;23;20018;-78
2022/07/27 16:59:43;;;;;;;1999.90;999.90;;;;;;;25.27;33.56;99213.06;10007575;23;20418;-78
2022/07/27 17:03:47;;;;;;;1999.90;999.90;;;;;;;25.18;33.66;99206.56;10003670;23;20330;-78
2022/07/27 17:07:51;;;;;;;1999.90;999.90;;;;;;;25.06;34.05;99210.06;10031430;23;20033;-78
2022/07/27 17:11:52;;;;;;;1999.90;999.90;;;;;;;24.94;34.89;99210.81;10047113;23;20066;-78
2022/07/27 17:15:54;;;;;;;1999.90;999.90;;;;;;;24.78;35.13;99203.03;10028268;23;20145;-77
2022/07/27 17:19:56;;;;;;;;;;;;;;;24.55;34.55;99201.88;9983943;23;20031;-77
2022/07/27 17:23:58;;;;;;;1999.90;999.90;;;;;;;24.34;34.14;99192.63;10033682;23;19961;-77
2022/07/27 17:27:59;;;;;;;1999.90;999.90;;;;;;;24.14;34.33;99198.31;10025184;23;20023;-78
2022/07/27 17:32:01;;;;;;;1999.90;999.90;;;;;;;23.96;35.75;99195.03;9983681;23;20062;-77
2022/07/27 17:36:03;;;;;;;1999.90;999.90;;;;;;;23.80;35.45;99195.97;9986609;23;20058;-77
2022/07/27 17:40:05;;;;;;;1999.90;999.90;;;;;;;23.67;35.73;99196.81;9983276;23;20031;-77
2022/07/27 17:44:06;;;;;;;1999.90;999.90;;;;;;;23.59;36.44;99197.28;9999963;23;20479;-78
2022/07/27 17:48:08;;;;;;;1999.90;999.90;;;;;;;23.48;37.14;99207.66;9978747;23;20023;-77
2022/07/27 17:52:10;;;;;;;1999.90;999.90;;;;;;;23.39;36.21;99194.97;9998866;23;20031;-78
2022/07/27 17:56:12;;;;;;;1999.90;999.90;;;;;;;23.33;37.53;99197.97;9983462;23;20023;-78
2022/07/27 18:00:14;;;;;;;1999.90;999.90;;;;;;;23.28;37.48;99198.25;9978493;23;20031;-78
2022/07/27 18:04:16;;;;;;;1999.90;999.90;;;;;;;23.26;36.57;99194.84;9984678;23;20031;-78
2022/07/27 18:08:18;;;;;;;1999.90;999.90;;;;;;;23.22;37.53;99198.63;9983261;23;20320;-77
2022/07/27 18:12:20;;;;;;;;;;;;;;;23.15;37.13;99189.31;10001228;23;20044;-78
2022/07/27 18:16:22;;;;;;;1999.90;999.90;;;;;;;23.07;37.83;99200.38;9955429;23;20001;-78
2022/07/27 18:20:24;;;;;;;1999.90;999.90;;;;;;;22.99;39.16;99194.69;9956753;23;20454;-77
2022/07/27 18:24:27;;;;;;;1999.90;999.90;;;;;;;22.78;40.40;99206.44;9959516;23;20059;-77
2022/07/27 18:28:30;;;;;;;1999.90;999.90;;;;;;;22.54;41.69;99204.25;9984507;23;20023;-77
2022/07/27 18:32:39;;;;;;;1999.90;999.90;;;;;;;22.29;41.70;99210.09;9978612;23;20091;-77